Flight Track Log - Related Links

Times and Time Zones

All times are in EDT time to prevent confusion due to time zone crossing. See the XSR396 flight status page for this flight to view local times or setup timezone preferences in your user account.


Time Position Orientation Groundspeed Altitude Reporting Facility
EDT Latitude Longitude Course Direction KTS MPH feet Rate Location/Type
Fri 03:08:49 PM 37.7358 -97.2225 218° Southwest 133 153 1,900  Level Kansas City Center
Fri 03:09:49 PM 37.7072 -97.2508 218° Southwest 140 161 3,200 1,148 Climbing Kansas City Center
Fri 03:10:44 PM 37.7097 -97.2981 274° West 167 192 4,100 698 Climbing Kansas City Center
Fri 03:11:15 PM 37.7158 -97.3222 288° West 159 183 4,200 568 Climbing Kansas City Center
Fri 03:12:19 PM 37.7358 -97.3817 293° West 173 199 5,000 919 Climbing Kansas City Center
Fri 03:13:19 PM 37.7725 -97.4206 320° Northwest 170 196 6,100 532 Climbing Kansas City Center
Fri 03:14:23 PM 37.8089 -97.4736 311° West 194 223 6,100 -48 Level Kansas City Center
Fri 03:15:24 PM 37.8517 -97.5442 308° West 206 237 6,000 -806 Descending Kansas City Center
Fri 03:16:37 PM 37.8869 -97.6308 297° West 218 251 4,300 -919 Descending Kansas City Center
Fri 03:17:28 PM 37.9094 -97.6797 300° West 213 245 4,100 -106 Descending Kansas City Center
Fri 03:18:30 PM 37.9414 -97.7450 302° West 206 237 4,100  Level Kansas City Center
Fri 03:19:34 PM 37.9739 -97.8167 300° West 211 243 4,100  Level Kansas City Center
Fri 03:20:35 PM 38.0044 -97.8742 304° West 211 243 4,100  Level Kansas City Center
Fri 03:21:45 PM 38.0417 -97.9578 299° West 211 243 4,100  Level Kansas City Center
Fri 03:22:48 PM 38.0883 -98.0067 320° Northwest 216 249 4,100  Level Kansas City Center
Fri 03:23:43 PM 38.1272 -98.0433 323° Northwest 197 227 4,100 -53 Level Kansas City Center
Fri 03:24:41 PM 38.1717 -98.0689 336° Northwest 185 213 4,000  Descending Kansas City Center
Fri 03:25:42 PM 38.1733 -98.0181 88° East 155 178 4,100 -96 Climbing Kansas City Center
Fri 03:26:46 PM 38.1617 -97.9656 106° East 158 182 3,800 -492 Descending Kansas City Center
Fri 03:27:44 PM 38.1322 -97.9364 142° Southeast 128 147 3,100 -690 Descending Kansas City Center
Fri 03:28:39 PM 38.1086 -97.9081 137° Southeast 127 146 2,500 -574 Descending Kansas City Center
Fri 03:29:39 PM 38.0833 -97.8853 145° Southeast 126 145 2,000 -309 Descending Kansas City Center
Fri 03:30:55 PM 38.0553 -97.8503 136° Southeast 126 145 1,800 -158 Descending Kansas City Center

Login

Don't have an account? Register now (free) for customized features, flight alerts, and more!